Time,TemperatureF,DewpointF,PressureIn,WindDirection,WindDirectionDegrees,WindSpeedMPH,WindSpeedGustMPH,Humidity,HourlyPrecipIn,Conditions,Clouds,dailyrainin,SoftwareType,DateUTC
2013-06-29 00:00:00,81.7,64.9,29.87,North,0,0.0,0.0,57,0.00,,,0.00,WUHU216HW,2013-06-29 07:00:00,
2013-06-29 00:05:00,81.5,65.3,29.86,North,0,0.0,0.0,58,0.00,,,0.00,WUHU216HW,2013-06-29 07:05:00,
2013-06-29 00:10:00,81.4,65.2,29.87,North,0,0.0,0.0,58,0.00,,,0.00,WUHU216HW,2013-06-29 07:10:00,
2013-06-29 00:15:00,81.2,65.0,29.87,North,0,0.0,0.0,58,0.00,,,0.00,WUHU216HW,2013-06-29 07:15:00,
2013-06-29 00:20:00,80.8,64.6,29.87,North,0,0.0,0.0,58,0.00,,,0.00,WUHU216HW,2013-06-29 07:20:00,
2013-06-29 00:25:00,80.6,64.4,29.87,North,0,0.0,0.0,58,0.00,,,0.00,WUHU216HW,2013-06-29 07:25:00,
2013-06-29 00:30:00,80.3,64.7,29.87,North,0,0.0,0.0,59,0.00,,,0.00,WUHU216HW,2013-06-29 07:30:00,
2013-06-29 00:35:00,80.1,65.1,29.87,NNW,338,0.4,0.4,60,0.00,,,0.00,WUHU216HW,2013-06-29 07:35:00,
2013-06-29 00:40:00,79.9,64.9,29.87,North,0,0.0,0.0,60,0.00,,,0.00,WUHU216HW,2013-06-29 07:40:00,
2013-06-29 00:45:00,79.7,65.2,29.87,North,0,0.0,0.0,61,0.00,,,0.00,WUHU216HW,2013-06-29 07:45:00,
2013-06-29 00:50:00,79.4,64.8,29.86,East,90,0.5,0.9,61,0.00,,,0.00,WUHU216HW,2013-06-29 07:50:00,
2013-06-29 00:55:00,79.2,65.1,29.87,North,0,0.0,0.0,62,0.00,,,0.00,WUHU216HW,2013-06-29 07:55:00,
2013-06-29 01:00:00,79.0,64.9,29.87,North,0,0.0,0.0,62,0.00,,,0.00,WUHU216HW,2013-06-29 08:00:00,
2013-06-29 01:05:00,79.0,65.3,29.86,North,0,0.0,0.0,63,0.00,,,0.00,WUHU216HW,2013-06-29 08:05:00,
2013-06-29 01:10:00,79.2,65.1,29.86,North,0,0.0,0.0,62,0.00,,,0.00,WUHU216HW,2013-06-29 08:10:00,
2013-06-29 01:15:00,79.4,64.8,29.86,North,0,0.0,0.0,61,0.00,,,0.00,WUHU216HW,2013-06-29 08:15:00,
2013-06-29 01:20:00,79.4,64.8,29.86,North,0,0.0,0.0,61,0.00,,,0.00,WUHU216HW,2013-06-29 08:20:00,
2013-06-29 01:25:00,79.4,64.8,29.86,North,0,0.0,0.0,61,0.00,,,0.00,WUHU216HW,2013-06-29 08:25:00,
2013-06-29 01:30:00,79.2,64.6,29.86,North,0,0.0,0.0,61,0.00,,,0.00,WUHU216HW,2013-06-29 08:30:00,
2013-06-29 01:35:00,79.2,64.6,29.86,North,0,0.0,0.0,61,0.00,,,0.00,WUHU216HW,2013-06-29 08:35:00,
2013-06-29 01:40:00,79.0,64.9,29.85,North,0,0.0,0.0,62,0.00,,,0.00,WUHU216HW,2013-06-29 08:40:00,
2013-06-29 01:45:00,78.8,64.8,29.85,North,0,0.0,0.0,62,0.00,,,0.00,WUHU216HW,2013-06-29 08:45:00,
2013-06-29 01:50:00,78.5,64.9,29.85,North,0,0.0,0.0,63,0.00,,,0.00,WUHU216HW,2013-06-29 08:50:00,
2013-06-29 01:55:00,78.3,64.7,29.85,North,0,0.0,0.0,63,0.00,,,0.00,WUHU216HW,2013-06-29 08:55:00,
2013-06-29 02:00:00,78.1,64.5,29.86,North,0,0.0,0.0,63,0.00,,,0.00,WUHU216HW,2013-06-29 09:00:00,
2013-06-29 02:05:00,77.9,64.8,29.85,North,0,0.0,0.0,64,0.00,,,0.00,WUHU216HW,2013-06-29 09:05:00,
2013-06-29 02:10:00,77.9,64.8,29.85,North,0,0.0,0.0,64,0.00,,,0.00,WUHU216HW,2013-06-29 09:10:00,
2013-06-29 02:15:00,77.8,64.6,29.85,North,0,0.0,0.0,64,0.00,,,0.00,WUHU216HW,2013-06-29 09:15:00,
2013-06-29 02:20:00,77.8,64.6,29.85,North,0,0.0,0.0,64,0.00,,,0.00,WUHU216HW,2013-06-29 09:20:00,
2013-06-29 02:25:00,77.6,64.5,29.85,North,0,0.0,0.0,64,0.00,,,0.00,WUHU216HW,2013-06-29 09:25:00,
2013-06-29 02:30:00,77.4,64.7,29.85,North,0,0.0,0.0,65,0.00,,,0.00,WUHU216HW,2013-06-29 09:30:00,
2013-06-29 02:35:00,77.2,64.5,29.85,North,0,0.0,0.0,65,0.00,,,0.00,WUHU216HW,2013-06-29 09:35:00,
2013-06-29 02:40:00,77.0,64.4,29.84,North,0,0.0,0.0,65,0.00,,,0.00,WUHU216HW,2013-06-29 09:40:00,
2013-06-29 02:45:00,77.0,64.4,29.84,North,0,0.0,0.0,65,0.00,,,0.00,WUHU216HW,2013-06-29 09:45:00,
2013-06-29 02:50:00,77.0,64.4,29.85,North,0,0.0,0.0,65,0.00,,,0.00,WUHU216HW,2013-06-29 09:50:00,
2013-06-29 02:55:00,76.9,64.2,29.84,North,0,0.0,0.0,65,0.00,,,0.00,WUHU216HW,2013-06-29 09:55:00,
2013-06-29 03:00:00,76.7,64.0,29.84,North,0,0.0,0.0,65,0.00,,,0.00,WUHU216HW,2013-06-29 10:00:00,
2013-06-29 03:05:00,76.7,64.0,29.84,North,0,0.0,0.0,65,0.00,,,0.00,WUHU216HW,2013-06-29 10:05:00,
2013-06-29 03:10:00,76.7,64.0,29.84,North,0,0.0,0.0,65,0.00,,,0.00,WUHU216HW,2013-06-29 10:10:00,
2013-06-29 03:15:00,76.7,64.0,29.84,North,0,0.0,0.0,65,0.00,,,0.00,WUHU216HW,2013-06-29 10:15:00,
2013-06-29 03:21:00,76.5,63.8,29.84,North,0,0.0,0.0,65,0.00,,,0.00,WUHU216HW,2013-06-29 10:21:00,
2013-06-29 03:26:00,76.3,63.6,29.84,North,0,0.0,0.0,65,0.00,,,0.00,WUHU216HW,2013-06-29 10:26:00,
2013-06-29 03:31:00,76.3,63.6,29.84,North,0,0.0,0.0,65,0.00,,,0.00,WUHU216HW,2013-06-29 10:31:00,
2013-06-29 03:36:00,76.1,63.5,29.84,North,0,0.0,0.0,65,0.00,,,0.00,WUHU216HW,2013-06-29 10:36:00,
2013-06-29 03:41:00,76.0,63.4,29.84,North,0,0.0,0.0,65,0.00,,,0.00,WUHU216HW,2013-06-29 10:41:00,
2013-06-29 03:46:00,76.0,63.4,29.84,North,0,0.0,0.0,65,0.00,,,0.00,WUHU216HW,2013-06-29 10:46:00,
2013-06-29 03:51:00,76.0,63.4,29.84,North,0,0.0,0.0,65,0.00,,,0.00,WUHU216HW,2013-06-29 10:51:00,
2013-06-29 03:56:00,75.8,63.6,29.84,SE,135,0.2,0.2,66,0.00,,,0.00,WUHU216HW,2013-06-29 10:56:00,
2013-06-29 04:01:00,75.6,63.5,29.84,North,0,0.0,0.0,66,0.00,,,0.00,WUHU216HW,2013-06-29 11:01:00,
2013-06-29 04:06:00,75.6,63.5,29.85,SW,225,0.5,0.9,66,0.00,,,0.00,WUHU216HW,2013-06-29 11:06:00,
2013-06-29 04:11:00,75.4,63.3,29.85,SE,135,0.3,0.4,66,0.00,,,0.00,WUHU216HW,2013-06-29 11:11:00,
2013-06-29 04:16:00,75.2,63.6,29.85,North,0,0.0,0.0,67,0.00,,,0.00,WUHU216HW,2013-06-29 11:16:00,
2013-06-29 04:21:00,75.2,63.6,29.85,North,0,0.0,0.0,67,0.00,,,0.00,WUHU216HW,2013-06-29 11:21:00,
2013-06-29 04:26:00,75.1,63.4,29.85,North,0,0.0,0.0,67,0.00,,,0.00,WUHU216HW,2013-06-29 11:26:00,
2013-06-29 04:31:00,75.1,63.4,29.85,North,0,0.0,0.0,67,0.00,,,0.00,WUHU216HW,2013-06-29 11:31:00,
2013-06-29 04:36:00,75.1,63.4,29.85,North,0,0.0,0.0,67,0.00,,,0.00,WUHU216HW,2013-06-29 11:36:00,
2013-06-29 04:41:00,75.1,63.4,29.85,North,0,0.0,0.0,67,0.00,,,0.00,WUHU216HW,2013-06-29 11:41:00,
2013-06-29 04:46:00,75.1,63.4,29.85,North,0,0.0,0.0,67,0.00,,,0.00,WUHU216HW,2013-06-29 11:46:00,
2013-06-29 04:51:00,74.9,62.7,29.86,North,0,0.0,0.0,66,0.00,,,0.00,WUHU216HW,2013-06-29 11:51:00,
2013-06-29 04:56:00,74.9,63.2,29.85,North,0,0.0,0.0,67,0.00,,,0.00,WUHU216HW,2013-06-29 11:56:00,
2013-06-29 05:01:00,74.7,63.0,29.85,North,0,0.0,0.0,67,0.00,,,0.00,WUHU216HW,2013-06-29 12:01:00,
2013-06-29 05:06:00,74.5,63.3,29.86,North,0,0.0,0.0,68,0.00,,,0.00,WUHU216HW,2013-06-29 12:06:00,
2013-06-29 05:11:00,74.3,63.1,29.86,North,0,0.0,0.0,68,0.00,,,0.00,WUHU216HW,2013-06-29 12:11:00,
2013-06-29 05:16:00,74.2,62.9,29.86,North,0,0.0,0.0,68,0.00,,,0.00,WUHU216HW,2013-06-29 12:16:00,
2013-06-29 05:21:00,74.2,62.9,29.86,North,0,0.0,0.0,68,0.00,,,0.00,WUHU216HW,2013-06-29 12:21:00,
2013-06-29 05:26:00,74.3,63.1,29.86,North,0,0.0,0.0,68,0.00,,,0.00,WUHU216HW,2013-06-29 12:26:00,
2013-06-29 05:31:00,74.2,62.9,29.86,North,0,0.0,0.0,68,0.00,,,0.00,WUHU216HW,2013-06-29 12:31:00,
2013-06-29 05:36:00,74.0,62.8,29.87,North,0,0.0,0.0,68,0.00,,,0.00,WUHU216HW,2013-06-29 12:36:00,
2013-06-29 05:41:00,74.0,62.8,29.87,ESE,102,0.3,0.7,68,0.00,,,0.00,WUHU216HW,2013-06-29 12:41:00,
2013-06-29 05:46:00,74.0,62.4,29.87,SE,135,0.4,0.4,67,0.00,,,0.00,WUHU216HW,2013-06-29 12:46:00,
2013-06-29 05:51:00,74.0,62.4,29.87,North,0,0.0,0.0,67,0.00,,,0.00,WUHU216HW,2013-06-29 12:51:00,
2013-06-29 05:56:00,73.8,62.2,29.87,North,0,0.0,0.0,67,0.00,,,0.00,WUHU216HW,2013-06-29 12:56:00,
2013-06-29 06:01:00,73.6,62.5,29.87,North,0,0.0,0.0,68,0.00,,,0.00,WUHU216HW,2013-06-29 13:01:00,
2013-06-29 06:06:00,73.6,62.5,29.87,North,0,0.0,0.0,68,0.00,,,0.00,WUHU216HW,2013-06-29 13:06:00,
2013-06-29 06:11:00,73.6,62.5,29.87,North,0,0.0,0.0,68,0.00,,,0.00,WUHU216HW,2013-06-29 13:11:00,
2013-06-29 06:16:00,73.6,62.5,29.87,North,0,0.0,0.0,68,0.00,,,0.00,WUHU216HW,2013-06-29 13:16:00,
2013-06-29 06:21:00,73.6,62.5,29.87,North,0,0.0,0.0,68,0.00,,,0.00,WUHU216HW,2013-06-29 13:21:00,
2013-06-29 06:26:00,73.8,62.7,29.87,North,0,0.0,0.0,68,0.00,,,0.00,WUHU216HW,2013-06-29 13:26:00,
2013-06-29 06:31:00,74.0,62.8,29.87,ESE,113,0.2,0.2,68,0.00,,,0.00,WUHU216HW,2013-06-29 13:31:00,
2013-06-29 06:36:00,74.2,62.5,29.87,ESE,113,0.2,0.2,67,0.00,,,0.00,WUHU216HW,2013-06-29 13:36:00,
2013-06-29 06:41:00,74.3,62.6,29.87,North,0,0.0,0.0,67,0.00,,,0.00,WUHU216HW,2013-06-29 13:41:00,
2013-06-29 06:46:00,74.7,62.6,29.87,ESE,104,0.3,0.4,66,0.00,,,0.00,WUHU216HW,2013-06-29 13:46:00,
2013-06-29 06:51:00,75.1,62.9,29.88,North,0,0.0,0.0,66,0.00,,,0.00,WUHU216HW,2013-06-29 13:51:00,
2013-06-29 06:56:00,75.2,63.1,29.87,ESE,122,0.3,0.4,66,0.00,,,0.00,WUHU216HW,2013-06-29 13:56:00,
2013-06-29 07:01:00,75.6,63.0,29.87,ESE,102,0.3,0.7,65,0.00,,,0.00,WUHU216HW,2013-06-29 14:01:00,
2013-06-29 07:06:00,76.0,63.4,29.87,ESE,104,0.5,1.1,65,0.00,,,0.00,WUHU216HW,2013-06-29 14:06:00,
2013-06-29 07:11:00,76.5,63.4,29.87,ESE,111,0.5,1.1,64,0.00,,,0.00,WUHU216HW,2013-06-29 14:11:00,
2013-06-29 07:16:00,77.0,63.9,29.87,ESE,122,0.5,1.1,64,0.00,,,0.00,WUHU216HW,2013-06-29 14:16:00,
2013-06-29 07:21:00,77.4,63.8,29.87,ESE,114,0.7,1.8,63,0.00,,,0.00,WUHU216HW,2013-06-29 14:21:00,
2013-06-29 07:26:00,78.1,64.1,29.87,ESE,123,0.7,1.1,62,0.00,,,0.00,WUHU216HW,2013-06-29 14:26:00,
2013-06-29 07:31:00,78.5,63.5,29.87,SE,128,1.0,1.8,60,0.00,,,0.00,WUHU216HW,2013-06-29 14:31:00,
2013-06-29 07:36:00,79.2,64.3,29.87,SE,130,1.4,2.5,60,0.00,,,0.00,WUHU216HW,2013-06-29 14:36:00,
2013-06-29 07:41:00,79.6,63.6,29.87,SE,138,0.8,1.3,58,0.00,,,0.00,WUHU216HW,2013-06-29 14:41:00,
2013-06-29 07:46:00,79.7,63.6,29.87,SE,144,1.1,2.0,58,0.00,,,0.00,WUHU216HW,2013-06-29 14:46:00,
2013-06-29 07:51:00,80.1,64.0,29.87,SSE,147,1.1,1.6,58,0.00,,,0.00,WUHU216HW,2013-06-29 14:51:00,
2013-06-29 07:56:00,80.8,64.6,29.87,SSE,153,1.0,2.7,58,0.00,,,0.00,WUHU216HW,2013-06-29 14:56:00,
2013-06-29 08:01:00,81.4,64.1,29.87,ESE,123,1.0,1.6,56,0.00,,,0.00,WUHU216HW,2013-06-29 15:01:00,
2013-06-29 08:06:00,82.1,64.7,29.87,ESE,116,0.6,1.8,56,0.00,,,0.00,WUHU216HW,2013-06-29 15:06:00,
2013-06-29 08:11:00,82.8,64.9,29.87,SE,143,1.2,1.8,55,0.00,,,0.00,WUHU216HW,2013-06-29 15:11:00,
2013-06-29 08:16:00,83.3,65.4,29.87,South,185,1.7,2.9,55,0.00,,,0.00,WUHU216HW,2013-06-29 15:16:00,
2013-06-29 08:21:00,83.9,65.4,29.87,South,171,1.5,2.2,54,0.00,,,0.00,WUHU216HW,2013-06-29 15:21:00,
2013-06-29 08:26:00,84.2,66.3,29.87,South,171,1.9,3.4,55,0.00,,,0.00,WUHU216HW,2013-06-29 15:26:00,
2013-06-29 08:31:00,84.8,66.3,29.87,South,174,2.2,3.4,54,0.00,,,0.00,WUHU216HW,2013-06-29 15:31:00,
2013-06-29 08:36:00,85.1,66.1,29.87,South,175,1.9,2.9,53,0.00,,,0.00,WUHU216HW,2013-06-29 15:36:00,
2013-06-29 08:41:00,85.3,65.7,29.87,SSE,167,2.4,3.6,52,0.00,,,0.00,WUHU216HW,2013-06-29 15:41:00,
2013-06-29 08:46:00,85.7,66.1,29.87,South,190,1.8,2.9,52,0.00,,,0.00,WUHU216HW,2013-06-29 15:46:00,
2013-06-29 08:51:00,85.9,65.7,29.87,South,171,2.1,3.4,51,0.00,,,0.00,WUHU216HW,2013-06-29 15:51:00,
2013-06-29 08:56:00,86.0,65.9,29.87,SSE,151,2.1,3.1,51,0.00,,,0.00,WUHU216HW,2013-06-29 15:56:00,
2013-06-29 09:01:00,86.4,65.7,29.87,South,180,2.0,3.8,50,0.00,,,0.00,WUHU216HW,2013-06-29 16:01:00,
2013-06-29 09:06:00,86.9,66.2,29.87,SSE,160,1.8,2.7,50,0.00,,,0.00,WUHU216HW,2013-06-29 16:06:00,
2013-06-29 09:11:00,87.5,66.6,29.87,South,186,2.1,3.4,50,0.00,,,0.00,WUHU216HW,2013-06-29 16:11:00,
2013-06-29 09:16:00,87.8,66.3,29.86,South,184,2.1,2.9,49,0.00,,,0.00,WUHU216HW,2013-06-29 16:16:00,
2013-06-29 09:21:00,88.2,66.1,29.87,SSE,165,2.4,4.0,48,0.00,,,0.00,WUHU216HW,2013-06-29 16:21:00,
2013-06-29 09:26:00,88.6,66.3,29.86,South,188,2.7,3.6,48,0.00,,,0.00,WUHU216HW,2013-06-29 16:26:00,
2013-06-29 09:31:00,88.9,66.7,29.87,South,174,3.1,3.8,48,0.00,,,0.00,WUHU216HW,2013-06-29 16:31:00,
2013-06-29 09:36:00,89.3,66.3,29.86,SSE,168,3.1,4.7,47,0.00,,,0.00,WUHU216HW,2013-06-29 16:36:00,
2013-06-29 09:41:00,89.8,66.2,29.87,SSE,160,2.6,4.9,46,0.00,,,0.00,WUHU216HW,2013-06-29 16:41:00,
2013-06-29 09:46:00,90.0,65.7,29.87,SSW,194,3.5,5.4,45,0.00,,,0.00,WUHU216HW,2013-06-29 16:46:00,
2013-06-29 09:51:00,90.4,65.3,29.86,South,179,3.2,4.7,44,0.00,,,0.00,WUHU216HW,2013-06-29 16:51:00,
2013-06-29 09:56:00,91.1,65.3,29.86,South,182,3.5,4.7,43,0.00,,,0.00,WUHU216HW,2013-06-29 16:56:00,
2013-06-29 10:01:00,91.3,64.9,29.86,SSE,159,3.9,5.6,42,0.00,,,0.00,WUHU216HW,2013-06-29 17:01:00,
2013-06-29 10:06:00,91.3,64.9,29.86,SSE,157,3.9,5.4,42,0.00,,,0.00,WUHU216HW,2013-06-29 17:06:00,
2013-06-29 10:11:00,91.4,65.0,29.86,SSE,153,2.9,4.7,42,0.00,,,0.00,WUHU216HW,2013-06-29 17:11:00,
2013-06-29 10:16:00,92.3,65.8,29.86,South,178,2.7,4.0,42,0.00,,,0.00,WUHU216HW,2013-06-29 17:16:00,
2013-06-29 10:21:00,93.2,66.6,29.86,South,186,2.8,4.0,42,0.00,,,0.00,WUHU216HW,2013-06-29 17:21:00,
2013-06-29 10:26:00,93.8,66.5,29.86,South,182,2.6,4.0,41,0.00,,,0.00,WUHU216HW,2013-06-29 17:26:00,
2013-06-29 10:31:00,94.3,67.0,29.86,SSE,156,2.7,4.0,41,0.00,,,0.00,WUHU216HW,2013-06-29 17:31:00,
2013-06-29 10:36:00,94.5,66.5,29.86,South,187,2.8,4.0,40,0.00,,,0.00,WUHU216HW,2013-06-29 17:36:00,
2013-06-29 10:41:00,94.3,66.3,29.86,SSW,201,2.5,4.7,40,0.00,,,0.00,WUHU216HW,2013-06-29 17:41:00,
2013-06-29 10:46:00,94.5,66.5,29.86,South,174,2.3,4.3,40,0.00,,,0.00,WUHU216HW,2013-06-29 17:46:00,
2013-06-29 10:51:00,94.7,65.8,29.86,South,181,3.8,5.1,39,0.00,,,0.00,WUHU216HW,2013-06-29 17:51:00,
2013-06-29 10:56:00,95.2,66.3,29.86,South,181,3.0,4.7,39,0.00,,,0.00,WUHU216HW,2013-06-29 17:56:00,
2013-06-29 11:01:00,95.4,64.0,29.86,SW,233,2.7,5.4,36,0.00,,,0.00,WUHU216HW,2013-06-29 18:01:00,
2013-06-29 11:06:00,95.4,64.8,29.86,South,186,2.1,4.7,37,0.00,,,0.00,WUHU216HW,2013-06-29 18:06:00,
2013-06-29 11:11:00,96.5,65.0,29.85,South,169,3.1,4.3,36,0.00,,,0.00,WUHU216HW,2013-06-29 18:11:00,
2013-06-29 11:16:00,97.0,64.6,29.85,SSW,201,2.8,4.7,35,0.00,,,0.00,WUHU216HW,2013-06-29 18:16:00,
2013-06-29 11:21:00,97.4,64.9,29.85,SSW,200,2.7,5.6,35,0.00,,,0.00,WUHU216HW,2013-06-29 18:21:00,
2013-06-29 11:26:00,97.4,64.9,29.85,SSE,155,3.4,6.3,35,0.00,,,0.00,WUHU216HW,2013-06-29 18:26:00,
2013-06-29 11:31:00,97.0,64.6,29.85,SW,214,3.2,5.4,35,0.00,,,0.00,WUHU216HW,2013-06-29 18:31:00,
2013-06-29 11:36:00,97.2,64.8,29.85,SW,228,2.4,5.6,35,0.00,,,0.00,WUHU216HW,2013-06-29 18:36:00,
2013-06-29 11:41:00,97.4,64.1,29.85,SW,232,2.1,3.4,34,0.00,,,0.00,WUHU216HW,2013-06-29 18:41:00,
2013-06-29 11:46:00,97.6,64.3,29.85,SSW,196,2.9,4.0,34,0.00,,,0.00,WUHU216HW,2013-06-29 18:46:00,
2013-06-29 11:51:00,97.7,64.5,29.85,West,266,3.2,5.4,34,0.00,,,0.00,WUHU216HW,2013-06-29 18:51:00,
2013-06-29 11:56:00,97.7,64.5,29.85,West,280,3.5,5.4,34,0.00,,,0.00,WUHU216HW,2013-06-29 18:56:00,
2013-06-29 12:01:00,97.9,64.6,29.85,West,280,1.8,4.0,34,0.00,,,0.00,WUHU216HW,2013-06-29 19:01:00,
2013-06-29 12:06:00,98.6,63.5,29.84,South,185,2.7,5.6,32,0.00,,,0.00,WUHU216HW,2013-06-29 19:06:00,
2013-06-29 12:11:00,99.2,64.1,29.84,SSW,213,2.6,4.3,32,0.00,,,0.00,WUHU216HW,2013-06-29 19:11:00,
2013-06-29 12:16:00,99.0,63.1,29.84,WNW,285,3.6,5.4,31,0.00,,,0.00,WUHU216HW,2013-06-29 19:16:00,
2013-06-29 12:21:00,99.4,63.4,29.84,South,183,3.1,5.1,31,0.00,,,0.00,WUHU216HW,2013-06-29 19:21:00,
2013-06-29 12:26:00,99.9,63.9,29.84,SSW,197,2.5,4.7,31,0.00,,,0.00,WUHU216HW,2013-06-29 19:26:00,
2013-06-29 12:31:00,100.1,63.2,29.84,SW,231,2.3,5.8,30,0.00,,,0.00,WUHU216HW,2013-06-29 19:31:00,
2013-06-29 12:36:00,100.1,63.2,29.84,SW,226,1.8,4.0,30,0.00,,,0.00,WUHU216HW,2013-06-29 19:36:00,
2013-06-29 12:41:00,100.8,63.8,29.84,South,173,3.0,4.0,30,0.00,,,0.00,WUHU216HW,2013-06-29 19:41:00,
2013-06-29 12:46:00,100.6,63.7,29.84,SSW,207,3.4,5.4,30,0.00,,,0.00,WUHU216HW,2013-06-29 19:46:00,
2013-06-29 12:51:00,100.8,63.8,29.83,SW,227,2.1,5.6,30,0.00,,,0.00,WUHU216HW,2013-06-29 19:51:00,
2013-06-29 12:56:00,101.3,64.3,29.84,South,184,2.8,6.3,30,0.00,,,0.00,WUHU216HW,2013-06-29 19:56:00,
2013-06-29 13:01:00,101.7,64.5,29.83,SSW,205,3.2,5.4,30,0.00,,,0.00,WUHU216HW,2013-06-29 20:01:00,
2013-06-29 13:06:00,101.9,63.5,29.83,WSW,245,2.6,3.8,29,0.00,,,0.00,WUHU216HW,2013-06-29 20:06:00,
2013-06-29 13:11:00,102.2,63.8,29.83,West,273,1.7,4.5,29,0.00,,,0.00,WUHU216HW,2013-06-29 20:11:00,
2013-06-29 13:16:00,102.6,64.2,29.83,WSW,251,3.2,4.7,29,0.00,,,0.00,WUHU216HW,2013-06-29 20:16:00,
2013-06-29 13:21:00,102.6,64.2,29.82,WSW,248,2.0,4.0,29,0.00,,,0.00,WUHU216HW,2013-06-29 20:21:00,
2013-06-29 13:26:00,102.6,61.9,29.83,WSW,256,2.5,5.6,27,0.00,,,0.00,WUHU216HW,2013-06-29 20:26:00,
2013-06-29 13:31:00,102.8,63.2,29.82,SW,221,2.3,4.7,28,0.00,,,0.00,WUHU216HW,2013-06-29 20:31:00,
2013-06-29 13:36:00,103.3,64.8,29.82,SSW,200,2.9,4.7,29,0.00,,,0.00,WUHU216HW,2013-06-29 20:36:00,
2013-06-29 13:41:00,103.3,62.6,29.82,SSW,213,1.7,3.6,27,0.00,,,0.00,WUHU216HW,2013-06-29 20:41:00,
2013-06-29 13:46:00,103.1,64.6,29.82,SW,220,2.3,3.8,29,0.00,,,0.00,WUHU216HW,2013-06-29 20:46:00,
2013-06-29 13:51:00,103.5,62.6,29.82,West,262,1.9,4.3,27,0.00,,,0.00,WUHU216HW,2013-06-29 20:51:00,
2013-06-29 13:56:00,104.0,63.2,29.82,West,272,2.8,4.7,27,0.00,,,0.00,WUHU216HW,2013-06-29 20:56:00,
2013-06-29 14:01:00,104.4,64.6,29.81,SSW,198,2.6,4.7,28,0.00,,,0.00,WUHU216HW,2013-06-29 21:01:00,
2013-06-29 14:06:00,104.9,62.7,29.81,SW,234,2.6,4.7,26,0.00,,,0.00,WUHU216HW,2013-06-29 21:06:00,
2013-06-29 14:11:00,104.6,62.5,29.81,WSW,240,1.8,2.7,26,0.00,,,0.00,WUHU216HW,2013-06-29 21:11:00,
2013-06-29 14:16:00,104.6,62.5,29.81,SSW,209,2.0,3.1,26,0.00,,,0.00,WUHU216HW,2013-06-29 21:16:00,
2013-06-29 14:21:00,104.8,62.6,29.81,WNW,289,2.9,4.3,26,0.00,,,0.00,WUHU216HW,2013-06-29 21:21:00,
2013-06-29 14:26:00,104.6,63.5,29.80,SW,232,2.0,3.6,27,0.00,,,0.00,WUHU216HW,2013-06-29 21:26:00,
2013-06-29 14:31:00,105.1,64.0,29.80,SSE,163,2.6,6.3,27,0.00,,,0.00,WUHU216HW,2013-06-29 21:31:00,
2013-06-29 14:36:00,105.1,62.8,29.80,NW,322,3.1,6.3,26,0.00,,,0.00,WUHU216HW,2013-06-29 21:36:00,
2013-06-29 14:41:00,104.6,63.5,29.80,NNE,30,2.0,6.3,27,0.00,,,0.00,WUHU216HW,2013-06-29 21:41:00,
2013-06-29 14:46:00,104.8,63.7,29.80,WSW,247,2.0,3.8,27,0.00,,,0.00,WUHU216HW,2013-06-29 21:46:00,
2013-06-29 14:51:00,104.9,63.9,29.79,West,277,3.3,5.4,27,0.00,,,0.00,WUHU216HW,2013-06-29 21:51:00,
2013-06-29 14:56:00,105.1,64.0,29.79,West,276,2.1,5.1,27,0.00,,,0.00,WUHU216HW,2013-06-29 21:56:00,
2013-06-29 15:01:00,105.7,64.4,29.79,SSW,201,2.2,4.9,27,0.00,,,0.00,WUHU216HW,2013-06-29 22:01:00,
2013-06-29 15:06:00,106.0,64.7,29.79,West,269,2.8,4.7,27,0.00,,,0.00,WUHU216HW,2013-06-29 22:06:00,
2013-06-29 15:11:00,105.8,64.6,29.79,West,265,3.0,6.3,27,0.00,,,0.00,WUHU216HW,2013-06-29 22:11:00,
2013-06-29 15:16:00,105.8,63.5,29.78,WNW,294,3.1,6.7,26,0.00,,,0.00,WUHU216HW,2013-06-29 22:16:00,
2013-06-29 15:21:00,105.8,64.6,29.78,South,179,2.3,4.9,27,0.00,,,0.00,WUHU216HW,2013-06-29 22:21:00,
2013-06-29 15:26:00,105.8,64.6,29.77,WNW,294,3.0,4.7,27,0.00,,,0.00,WUHU216HW,2013-06-29 22:26:00,
2013-06-29 15:31:00,105.8,64.6,29.78,West,275,3.9,6.9,27,0.00,,,0.00,WUHU216HW,2013-06-29 22:31:00,
2013-06-29 15:36:00,105.8,64.6,29.77,WNW,293,2.8,4.0,27,0.00,,,0.00,WUHU216HW,2013-06-29 22:36:00,
2013-06-29 15:41:00,106.2,64.9,29.77,WNW,293,3.8,5.1,27,0.00,,,0.00,WUHU216HW,2013-06-29 22:41:00,
2013-06-29 15:46:00,106.2,63.7,29.77,NNW,336,2.5,3.6,26,0.00,,,0.00,WUHU216HW,2013-06-29 22:46:00,
2013-06-29 15:51:00,106.2,63.7,29.77,NW,304,2.8,4.0,26,0.00,,,0.00,WUHU216HW,2013-06-29 22:51:00,
2013-06-29 15:56:00,106.2,62.7,29.77,West,281,2.7,6.3,25,0.00,,,0.00,WUHU216HW,2013-06-29 22:56:00,
2013-06-29 16:01:00,106.2,62.7,29.77,NW,318,3.0,6.3,25,0.00,,,0.00,WUHU216HW,2013-06-29 23:01:00,
2013-06-29 16:06:00,106.2,62.7,29.76,NW,307,3.5,5.1,25,0.00,,,0.00,WUHU216HW,2013-06-29 23:06:00,
2013-06-29 16:11:00,106.6,61.7,29.76,WNW,287,2.8,3.8,24,0.00,,,0.00,WUHU216HW,2013-06-29 23:11:00,
2013-06-29 16:16:00,106.6,62.9,29.76,WNW,291,4.0,6.0,25,0.00,,,0.00,WUHU216HW,2013-06-29 23:16:00,
2013-06-29 16:21:00,106.4,62.7,29.76,WNW,300,3.5,5.8,25,0.00,,,0.00,WUHU216HW,2013-06-29 23:21:00,
2013-06-29 16:27:00,106.2,61.5,29.75,WNW,302,4.5,6.7,24,0.00,,,0.00,WUHU216HW,2013-06-29 23:27:00,
2013-06-29 16:32:00,106.2,62.7,29.75,WNW,290,2.4,4.9,25,0.00,,,0.00,WUHU216HW,2013-06-29 23:32:00,
2013-06-29 16:37:00,106.4,62.7,29.75,NW,308,3.5,5.4,25,0.00,,,0.00,WUHU216HW,2013-06-29 23:37:00,
2013-06-29 16:42:00,106.2,62.7,29.75,WNW,296,3.1,4.0,25,0.00,,,0.00,WUHU216HW,2013-06-29 23:42:00,
2013-06-29 16:47:00,106.4,61.7,29.75,NW,309,2.7,4.7,24,0.00,,,0.00,WUHU216HW,2013-06-29 23:47:00,
2013-06-29 16:52:00,106.4,61.7,29.74,WNW,289,3.4,5.1,24,0.00,,,0.00,WUHU216HW,2013-06-29 23:52:00,
2013-06-29 16:57:00,106.6,62.9,29.74,WNW,295,2.1,4.0,25,0.00,,,0.00,WUHU216HW,2013-06-29 23:57:00,
2013-06-29 17:02:00,106.6,61.7,29.74,NW,305,3.6,5.8,24,0.00,,,0.00,WUHU216HW,2013-06-30 00:02:00,
2013-06-29 17:07:00,106.2,61.5,29.74,NW,307,2.9,4.7,24,0.00,,,0.00,WUHU216HW,2013-06-30 00:07:00,
2013-06-29 17:12:00,106.2,61.5,29.74,NW,309,3.7,6.3,24,0.00,,,0.00,WUHU216HW,2013-06-30 00:12:00,
2013-06-29 17:21:00,106.2,61.5,29.74,NW,315,4.0,4.0,24,0.00,,,0.00,WUHU216HW,2013-06-30 00:21:00,
2013-06-29 17:26:00,106.2,61.5,29.74,NW,315,4.0,4.0,24,0.00,,,0.00,WUHU216HW,2013-06-30 00:26:00,
2013-06-29 17:51:00,105.8,59.9,29.73,WNW,293,4.7,4.7,23,0.00,,,0.00,WUHU216HW,2013-06-30 00:51:00,
2013-06-29 18:04:00,105.8,61.1,29.73,NW,315,4.9,4.9,24,0.00,,,0.00,WUHU216HW,2013-06-30 01:04:00,
2013-06-29 18:34:00,104.8,60.3,29.72,NNW,338,3.4,3.4,24,0.00,,,0.00,WUHU216HW,2013-06-30 01:34:00,
2013-06-29 18:59:00,104.4,61.1,29.72,NNW,338,0.4,0.4,25,0.00,,,0.00,WUHU216HW,2013-06-30 01:59:00,
2013-06-29 19:04:00,104.4,61.1,29.72,NNW,338,0.4,0.4,25,0.00,,,0.00,WUHU216HW,2013-06-30 02:04:00,
2013-06-29 19:09:00,104.4,61.1,29.72,NNW,338,0.4,0.4,25,0.00,,,0.00,WUHU216HW,2013-06-30 02:09:00,
2013-06-29 19:34:00,103.0,61.0,29.73,NNW,338,0.9,0.9,26,0.00,,,0.00,WUHU216HW,2013-06-30 02:34:00,
2013-06-29 20:04:00,101.2,65.0,29.73,North,0,0.0,0.0,31,0.00,,,0.00,WUHU216HW,2013-06-30 03:04:00,
2013-06-29 20:34:00,97.7,65.3,29.74,North,0,0.0,0.0,35,0.00,,,0.00,WUHU216HW,2013-06-30 03:34:00,
2013-06-29 21:04:00,93.6,66.3,29.75,North,0,0.0,0.0,41,0.00,,,0.00,WUHU216HW,2013-06-30 04:04:00,
2013-06-29 21:59:00,88.7,67.2,29.76,North,0,0.0,0.0,49,0.00,,,0.00,WUHU216HW,2013-06-30 04:59:00,
2013-06-29 22:04:00,88.7,67.2,29.76,SSE,158,0.0,0.0,49,0.00,,,0.00,WUHU216HW,2013-06-30 05:04:00,
2013-06-29 22:29:00,86.8,66.5,29.77,North,0,0.0,0.0,51,0.00,,,0.00,WUHU216HW,2013-06-30 05:29:00,
2013-06-29 22:34:00,86.8,66.5,29.77,NNE,23,0.0,0.0,51,0.00,,,0.00,WUHU216HW,2013-06-30 05:34:00,
2013-06-29 23:29:00,83.7,65.8,29.77,North,0,0.0,0.0,55,0.00,,,0.00,WUHU216HW,2013-06-30 06:29:00,
2013-06-29 23:34:00,83.7,65.8,29.77,North,0,0.0,0.0,55,0.00,,,0.00,WUHU216HW,2013-06-30 06:34:00,